sensor_id;sensor_type;location;lat;lon;timestamp;P1;durP1;ratioP1;P2;durP2;ratioP2
39266;SDS011;24967;51.154;13.812;2023-09-18T00:00:08;4.43;;;4.03;;
39266;SDS011;24967;51.154;13.812;2023-09-18T00:02:37;3.88;;;3.58;;
39266;SDS011;24967;51.154;13.812;2023-09-18T00:05:04;3.63;;;3.42;;
39266;SDS011;24967;51.154;13.812;2023-09-18T00:07:30;3.78;;;3.58;;
39266;SDS011;24967;51.154;13.812;2023-09-18T00:09:57;7.45;;;3.63;;
39266;SDS011;24967;51.154;13.812;2023-09-18T00:12:23;4.20;;;3.80;;
39266;SDS011;24967;51.154;13.812;2023-09-18T00:14:50;4.00;;;3.63;;
39266;SDS011;24967;51.154;13.812;2023-09-18T00:17:18;3.60;;;3.35;;
39266;SDS011;24967;51.154;13.812;2023-09-18T00:19:45;4.35;;;4.15;;
39266;SDS011;24967;51.154;13.812;2023-09-18T00:22:11;4.65;;;4.35;;
39266;SDS011;24967;51.154;13.812;2023-09-18T00:24:38;4.32;;;4.07;;
39266;SDS011;24967;51.154;13.812;2023-09-18T00:27:04;4.25;;;3.95;;
39266;SDS011;24967;51.154;13.812;2023-09-18T00:29:31;3.70;;;3.45;;
39266;SDS011;24967;51.154;13.812;2023-09-18T00:31:57;4.45;;;4.05;;
39266;SDS011;24967;51.154;13.812;2023-09-18T00:34:25;4.15;;;3.80;;
39266;SDS011;24967;51.154;13.812;2023-09-18T00:36:52;4.45;;;4.10;;
39266;SDS011;24967;51.154;13.812;2023-09-18T00:39:18;4.40;;;4.00;;
39266;SDS011;24967;51.154;13.812;2023-09-18T00:41:45;4.55;;;4.00;;
39266;SDS011;24967;51.154;13.812;2023-09-18T00:44:14;4.25;;;3.80;;
39266;SDS011;24967;51.154;13.812;2023-09-18T00:46:40;4.18;;;3.92;;
39266;SDS011;24967;51.154;13.812;2023-09-18T00:49:07;4.55;;;4.15;;
39266;SDS011;24967;51.154;13.812;2023-09-18T00:51:35;3.70;;;3.47;;
39266;SDS011;24967;51.154;13.812;2023-09-18T00:54:02;4.53;;;4.13;;
39266;SDS011;24967;51.154;13.812;2023-09-18T00:56:29;4.63;;;4.20;;
39266;SDS011;24967;51.154;13.812;2023-09-18T00:58:55;4.80;;;4.50;;
39266;SDS011;24967;51.154;13.812;2023-09-18T01:01:22;4.97;;;4.15;;
39266;SDS011;24967;51.154;13.812;2023-09-18T01:03:49;4.78;;;3.92;;
39266;SDS011;24967;51.154;13.812;2023-09-18T01:06:18;4.57;;;4.13;;
39266;SDS011;24967;51.154;13.812;2023-09-18T01:08:47;4.35;;;4.13;;
39266;SDS011;24967;51.154;13.812;2023-09-18T01:11:21;4.53;;;4.20;;
39266;SDS011;24967;51.154;13.812;2023-09-18T01:13:54;6.40;;;4.40;;
39266;SDS011;24967;51.154;13.812;2023-09-18T01:16:31;4.95;;;4.55;;
39266;SDS011;24967;51.154;13.812;2023-09-18T01:19:01;4.68;;;4.22;;
39266;SDS011;24967;51.154;13.812;2023-09-18T01:21:28;4.45;;;4.18;;
39266;SDS011;24967;51.154;13.812;2023-09-18T01:23:56;4.88;;;4.47;;
39266;SDS011;24967;51.154;13.812;2023-09-18T01:26:22;5.25;;;4.85;;
39266;SDS011;24967;51.154;13.812;2023-09-18T01:28:49;4.80;;;4.50;;
39266;SDS011;24967;51.154;13.812;2023-09-18T01:31:15;4.97;;;4.60;;
39266;SDS011;24967;51.154;13.812;2023-09-18T01:33:42;5.30;;;4.93;;
39266;SDS011;24967;51.154;13.812;2023-09-18T01:36:12;4.82;;;4.43;;
39266;SDS011;24967;51.154;13.812;2023-09-18T01:38:40;4.45;;;4.10;;
39266;SDS011;24967;51.154;13.812;2023-09-18T01:41:09;4.38;;;4.07;;
39266;SDS011;24967;51.154;13.812;2023-09-18T01:43:36;4.85;;;4.45;;
39266;SDS011;24967;51.154;13.812;2023-09-18T01:46:03;4.47;;;4.10;;
39266;SDS011;24967;51.154;13.812;2023-09-18T01:48:30;4.18;;;3.95;;
39266;SDS011;24967;51.154;13.812;2023-09-18T01:50:57;4.78;;;4.45;;
39266;SDS011;24967;51.154;13.812;2023-09-18T01:53:23;4.60;;;4.30;;
39266;SDS011;24967;51.154;13.812;2023-09-18T01:55:51;4.65;;;4.28;;
39266;SDS011;24967;51.154;13.812;2023-09-18T01:58:19;5.10;;;4.68;;
39266;SDS011;24967;51.154;13.812;2023-09-18T02:00:45;4.90;;;4.38;;
39266;SDS011;24967;51.154;13.812;2023-09-18T02:03:12;5.25;;;4.85;;
39266;SDS011;24967;51.154;13.812;2023-09-18T02:05:39;5.35;;;4.85;;
39266;SDS011;24967;51.154;13.812;2023-09-18T02:08:06;5.05;;;4.65;;
39266;SDS011;24967;51.154;13.812;2023-09-18T02:10:33;5.15;;;4.82;;
39266;SDS011;24967;51.154;13.812;2023-09-18T02:12:59;5.07;;;4.68;;
39266;SDS011;24967;51.154;13.812;2023-09-18T02:15:27;5.75;;;4.97;;
39266;SDS011;24967;51.154;13.812;2023-09-18T02:17:57;5.22;;;4.82;;
39266;SDS011;24967;51.154;13.812;2023-09-18T02:20:23;5.95;;;5.30;;
39266;SDS011;24967;51.154;13.812;2023-09-18T02:22:50;5.05;;;4.75;;
39266;SDS011;24967;51.154;13.812;2023-09-18T02:25:17;5.32;;;4.82;;
39266;SDS011;24967;51.154;13.812;2023-09-18T02:27:43;4.93;;;4.53;;
39266;SDS011;24967;51.154;13.812;2023-09-18T02:30:10;5.40;;;4.90;;
39266;SDS011;24967;51.154;13.812;2023-09-18T02:32:38;5.03;;;4.72;;
39266;SDS011;24967;51.154;13.812;2023-09-18T02:35:05;5.55;;;5.05;;
39266;SDS011;24967;51.154;13.812;2023-09-18T02:37:33;6.00;;;5.35;;
39266;SDS011;24967;51.154;13.812;2023-09-18T02:40:00;5.22;;;4.82;;
39266;SDS011;24967;51.154;13.812;2023-09-18T02:42:27;5.20;;;4.90;;
39266;SDS011;24967;51.154;13.812;2023-09-18T02:44:54;5.78;;;5.28;;
39266;SDS011;24967;51.154;13.812;2023-09-18T02:47:20;5.00;;;4.60;;
39266;SDS011;24967;51.154;13.812;2023-09-18T02:49:48;5.72;;;5.32;;
39266;SDS011;24967;51.154;13.812;2023-09-18T02:52:15;5.35;;;4.95;;
39266;SDS011;24967;51.154;13.812;2023-09-18T02:54:41;5.32;;;4.93;;
39266;SDS011;24967;51.154;13.812;2023-09-18T02:57:08;5.30;;;4.90;;
39266;SDS011;24967;51.154;13.812;2023-09-18T02:59:34;6.93;;;5.40;;
39266;SDS011;24967;51.154;13.812;2023-09-18T03:02:01;6.03;;;5.53;;
39266;SDS011;24967;51.154;13.812;2023-09-18T03:04:28;5.10;;;4.80;;
39266;SDS011;24967;51.154;13.812;2023-09-18T03:06:57;4.68;;;4.22;;
39266;SDS011;24967;51.154;13.812;2023-09-18T03:09:23;5.15;;;4.72;;
39266;SDS011;24967;51.154;13.812;2023-09-18T03:11:49;5.13;;;4.72;;
39266;SDS011;24967;51.154;13.812;2023-09-18T03:14:16;5.47;;;5.07;;
39266;SDS011;24967;51.154;13.812;2023-09-18T03:16:43;5.38;;;4.97;;
39266;SDS011;24967;51.154;13.812;2023-09-18T03:19:09;5.65;;;4.95;;
39266;SDS011;24967;51.154;13.812;2023-09-18T03:21:36;5.20;;;4.75;;
39266;SDS011;24967;51.154;13.812;2023-09-18T03:24:04;5.50;;;4.85;;
39266;SDS011;24967;51.154;13.812;2023-09-18T03:26:31;5.28;;;4.85;;
39266;SDS011;24967;51.154;13.812;2023-09-18T03:28:58;5.00;;;4.60;;
39266;SDS011;24967;51.154;13.812;2023-09-18T03:31:24;5.22;;;4.72;;
39266;SDS011;24967;51.154;13.812;2023-09-18T03:33:51;5.47;;;5.03;;
39266;SDS011;24967;51.154;13.812;2023-09-18T03:36:20;4.82;;;4.53;;
39266;SDS011;24967;51.154;13.812;2023-09-18T03:38:47;5.40;;;5.00;;
39266;SDS011;24967;51.154;13.812;2023-09-18T03:41:15;5.30;;;5.00;;
39266;SDS011;24967;51.154;13.812;2023-09-18T03:43:41;4.93;;;4.63;;
39266;SDS011;24967;51.154;13.812;2023-09-18T03:46:08;5.20;;;4.70;;
39266;SDS011;24967;51.154;13.812;2023-09-18T03:48:34;5.53;;;5.03;;
39266;SDS011;24967;51.154;13.812;2023-09-18T03:51:02;5.55;;;5.05;;
39266;SDS011;24967;51.154;13.812;2023-09-18T03:53:29;5.63;;;5.22;;
39266;SDS011;24967;51.154;13.812;2023-09-18T03:55:55;5.53;;;5.20;;
39266;SDS011;24967;51.154;13.812;2023-09-18T03:58:23;6.05;;;5.35;;
39266;SDS011;24967;51.154;13.812;2023-09-18T04:00:50;5.65;;;5.07;;
39266;SDS011;24967;51.154;13.812;2023-09-18T04:03:17;6.28;;;4.93;;
39266;SDS011;24967;51.154;13.812;2023-09-18T04:05:43;4.93;;;4.55;;
39266;SDS011;24967;51.154;13.812;2023-09-18T04:08:10;5.53;;;5.03;;
39266;SDS011;24967;51.154;13.812;2023-09-18T04:10:38;5.22;;;4.72;;
39266;SDS011;24967;51.154;13.812;2023-09-18T04:13:04;5.35;;;5.03;;
39266;SDS011;24967;51.154;13.812;2023-09-18T04:15:32;5.63;;;5.15;;
39266;SDS011;24967;51.154;13.812;2023-09-18T04:18:02;5.28;;;4.90;;
39266;SDS011;24967;51.154;13.812;2023-09-18T04:20:29;5.53;;;5.10;;
39266;SDS011;24967;51.154;13.812;2023-09-18T04:25:44;5.90;;;5.40;;
39266;SDS011;24967;51.154;13.812;2023-09-18T04:28:11;6.43;;;5.82;;
39266;SDS011;24967;51.154;13.812;2023-09-18T04:30:40;6.18;;;5.60;;
39266;SDS011;24967;51.154;13.812;2023-09-18T04:33:06;5.95;;;5.53;;
39266;SDS011;24967;51.154;13.812;2023-09-18T04:35:32;5.88;;;5.38;;
39266;SDS011;24967;51.154;13.812;2023-09-18T04:37:59;6.38;;;5.93;;
39266;SDS011;24967;51.154;13.812;2023-09-18T04:40:26;6.13;;;5.53;;
39266;SDS011;24967;51.154;13.812;2023-09-18T04:45:23;7.07;;;5.80;;
39266;SDS011;24967;51.154;13.812;2023-09-18T04:47:51;6.50;;;5.30;;
39266;SDS011;24967;51.154;13.812;2023-09-18T04:50:18;6.20;;;5.70;;
39266;SDS011;24967;51.154;13.812;2023-09-18T04:52:45;6.43;;;5.93;;
39266;SDS011;24967;51.154;13.812;2023-09-18T04:55:12;6.68;;;5.72;;
39266;SDS011;24967;51.154;13.812;2023-09-18T04:57:39;6.40;;;5.90;;
39266;SDS011;24967;51.154;13.812;2023-09-18T05:00:06;6.57;;;5.95;;
39266;SDS011;24967;51.154;13.812;2023-09-18T05:02:35;6.35;;;5.75;;
39266;SDS011;24967;51.154;13.812;2023-09-18T05:05:03;6.15;;;5.55;;
39266;SDS011;24967;51.154;13.812;2023-09-18T05:07:30;6.07;;;5.57;;
39266;SDS011;24967;51.154;13.812;2023-09-18T05:09:57;7.25;;;5.57;;
39266;SDS011;24967;51.154;13.812;2023-09-18T05:12:24;7.07;;;5.63;;
39266;SDS011;24967;51.154;13.812;2023-09-18T05:14:50;6.60;;;6.07;;
39266;SDS011;24967;51.154;13.812;2023-09-18T05:17:17;6.30;;;5.65;;
39266;SDS011;24967;51.154;13.812;2023-09-18T05:19:44;6.47;;;5.97;;
39266;SDS011;24967;51.154;13.812;2023-09-18T05:22:12;7.63;;;5.82;;
39266;SDS011;24967;51.154;13.812;2023-09-18T05:24:39;5.78;;;5.38;;
39266;SDS011;24967;51.154;13.812;2023-09-18T05:27:05;6.40;;;5.90;;
39266;SDS011;24967;51.154;13.812;2023-09-18T05:29:32;5.85;;;5.45;;
39266;SDS011;24967;51.154;13.812;2023-09-18T05:32:01;7.65;;;5.93;;
39266;SDS011;24967;51.154;13.812;2023-09-18T05:34:27;6.07;;;5.53;;
39266;SDS011;24967;51.154;13.812;2023-09-18T05:36:54;5.68;;;5.28;;
39266;SDS011;24967;51.154;13.812;2023-09-18T05:39:22;6.63;;;5.72;;
39266;SDS011;24967;51.154;13.812;2023-09-18T05:41:48;5.80;;;5.25;;
39266;SDS011;24967;51.154;13.812;2023-09-18T05:44:15;6.18;;;5.68;;
39266;SDS011;24967;51.154;13.812;2023-09-18T05:46:41;5.85;;;5.35;;
39266;SDS011;24967;51.154;13.812;2023-09-18T05:49:07;5.70;;;5.20;;
39266;SDS011;24967;51.154;13.812;2023-09-18T05:51:35;6.93;;;5.30;;
39266;SDS011;24967;51.154;13.812;2023-09-18T05:54:02;5.75;;;5.35;;
39266;SDS011;24967;51.154;13.812;2023-09-18T05:56:30;7.38;;;5.13;;
39266;SDS011;24967;51.154;13.812;2023-09-18T05:58:56;5.20;;;4.80;;
39266;SDS011;24967;51.154;13.812;2023-09-18T06:01:23;6.18;;;5.60;;
39266;SDS011;24967;51.154;13.812;2023-09-18T06:03:50;6.40;;;5.82;;
39266;SDS011;24967;51.154;13.812;2023-09-18T06:06:16;5.53;;;5.03;;
39266;SDS011;24967;51.154;13.812;2023-09-18T06:08:43;6.32;;;5.15;;
39266;SDS011;24967;51.154;13.812;2023-09-18T06:11:09;5.40;;;4.90;;
39266;SDS011;24967;51.154;13.812;2023-09-18T06:13:37;6.97;;;5.45;;
39266;SDS011;24967;51.154;13.812;2023-09-18T06:16:04;5.57;;;4.95;;
39266;SDS011;24967;51.154;13.812;2023-09-18T06:18:33;5.63;;;4.47;;
39266;SDS011;24967;51.154;13.812;2023-09-18T06:21:00;5.30;;;4.88;;
39266;SDS011;24967;51.154;13.812;2023-09-18T06:23:27;4.68;;;4.38;;
39266;SDS011;24967;51.154;13.812;2023-09-18T06:25:53;4.90;;;4.50;;
39266;SDS011;24967;51.154;13.812;2023-09-18T06:28:21;5.28;;;4.97;;
39266;SDS011;24967;51.154;13.812;2023-09-18T06:30:49;4.63;;;4.32;;
39266;SDS011;24967;51.154;13.812;2023-09-18T06:33:15;4.93;;;4.53;;
39266;SDS011;24967;51.154;13.812;2023-09-18T06:35:42;5.30;;;4.70;;
39266;SDS011;24967;51.154;13.812;2023-09-18T06:38:09;5.85;;;5.35;;
39266;SDS011;24967;51.154;13.812;2023-09-18T06:40:37;5.55;;;5.15;;
39266;SDS011;24967;51.154;13.812;2023-09-18T06:43:04;5.30;;;4.90;;
39266;SDS011;24967;51.154;13.812;2023-09-18T06:45:31;5.40;;;5.00;;
39266;SDS011;24967;51.154;13.812;2023-09-18T06:47:59;5.80;;;5.40;;
39266;SDS011;24967;51.154;13.812;2023-09-18T06:50:26;5.90;;;5.38;;
39266;SDS011;24967;51.154;13.812;2023-09-18T06:52:52;5.28;;;4.97;;
39266;SDS011;24967;51.154;13.812;2023-09-18T06:55:19;5.72;;;5.28;;
39266;SDS011;24967;51.154;13.812;2023-09-18T06:57:45;5.30;;;4.80;;
39266;SDS011;24967;51.154;13.812;2023-09-18T07:00:13;5.65;;;5.15;;
39266;SDS011;24967;51.154;13.812;2023-09-18T07:02:43;5.43;;;4.93;;
39266;SDS011;24967;51.154;13.812;2023-09-18T07:05:11;5.60;;;4.80;;
39266;SDS011;24967;51.154;13.812;2023-09-18T07:07:38;5.97;;;5.57;;
39266;SDS011;24967;51.154;13.812;2023-09-18T07:10:05;5.55;;;5.18;;
39266;SDS011;24967;51.154;13.812;2023-09-18T07:12:32;5.63;;;5.28;;
39266;SDS011;24967;51.154;13.812;2023-09-18T07:14:59;5.97;;;5.03;;
39266;SDS011;24967;51.154;13.812;2023-09-18T07:17:28;7.37;;;5.73;;
39266;SDS011;24967;51.154;13.812;2023-09-18T07:19:55;5.00;;;4.70;;
39266;SDS011;24967;51.154;13.812;2023-09-18T07:22:23;7.03;;;5.20;;
39266;SDS011;24967;51.154;13.812;2023-09-18T07:24:49;4.72;;;4.38;;
39266;SDS011;24967;51.154;13.812;2023-09-18T07:27:16;5.53;;;4.95;;
39266;SDS011;24967;51.154;13.812;2023-09-18T07:29:42;6.78;;;4.70;;
39266;SDS011;24967;51.154;13.812;2023-09-18T07:32:09;5.78;;;5.28;;
39266;SDS011;24967;51.154;13.812;2023-09-18T07:34:35;5.70;;;5.28;;
39266;SDS011;24967;51.154;13.812;2023-09-18T07:37:02;5.53;;;5.13;;
39266;SDS011;24967;51.154;13.812;2023-09-18T07:39:30;9.82;;;4.55;;
39266;SDS011;24967;51.154;13.812;2023-09-18T07:41:57;7.10;;;4.55;;
39266;SDS011;24967;51.154;13.812;2023-09-18T07:44:24;5.00;;;4.47;;
39266;SDS011;24967;51.154;13.812;2023-09-18T07:46:50;4.90;;;4.50;;
39266;SDS011;24967;51.154;13.812;2023-09-18T07:49:17;6.15;;;4.50;;
39266;SDS011;24967;51.154;13.812;2023-09-18T07:51:44;6.57;;;4.53;;
39266;SDS011;24967;51.154;13.812;2023-09-18T07:54:13;5.10;;;4.80;;
39266;SDS011;24967;51.154;13.812;2023-09-18T07:56:42;5.07;;;4.60;;
39266;SDS011;24967;51.154;13.812;2023-09-18T07:59:08;5.13;;;4.50;;
39266;SDS011;24967;51.154;13.812;2023-09-18T08:01:35;4.45;;;4.10;;
39266;SDS011;24967;51.154;13.812;2023-09-18T08:04:02;3.85;;;3.65;;
39266;SDS011;24967;51.154;13.812;2023-09-18T08:06:30;4.35;;;4.05;;
39266;SDS011;24967;51.154;13.812;2023-09-18T08:08:56;4.38;;;3.97;;
39266;SDS011;24967;51.154;13.812;2023-09-18T08:11:23;3.80;;;3.33;;
39266;SDS011;24967;51.154;13.812;2023-09-18T08:13:51;4.03;;;3.67;;
39266;SDS011;24967;51.154;13.812;2023-09-18T08:16:17;5.63;;;4.15;;
39266;SDS011;24967;51.154;13.812;2023-09-18T08:18:44;4.10;;;3.90;;
39266;SDS011;24967;51.154;13.812;2023-09-18T08:21:11;3.92;;;3.60;;
39266;SDS011;24967;51.154;13.812;2023-09-18T08:23:38;4.05;;;3.85;;
39266;SDS011;24967;51.154;13.812;2023-09-18T08:26:05;3.90;;;3.70;;
39266;SDS011;24967;51.154;13.812;2023-09-18T08:28:32;5.47;;;3.72;;
39266;SDS011;24967;51.154;13.812;2023-09-18T08:31:02;4.00;;;3.78;;
39266;SDS011;24967;51.154;13.812;2023-09-18T08:33:28;3.88;;;3.67;;
39266;SDS011;24967;51.154;13.812;2023-09-18T08:35:55;3.95;;;3.60;;
39266;SDS011;24967;51.154;13.812;2023-09-18T08:38:22;3.80;;;3.50;;
39266;SDS011;24967;51.154;13.812;2023-09-18T08:40:48;3.97;;;3.70;;
39266;SDS011;24967;51.154;13.812;2023-09-18T08:43:15;3.65;;;3.35;;
39266;SDS011;24967;51.154;13.812;2023-09-18T08:45:45;3.95;;;3.75;;
39266;SDS011;24967;51.154;13.812;2023-09-18T08:48:14;4.18;;;3.50;;
39266;SDS011;24967;51.154;13.812;2023-09-18T08:50:41;3.50;;;3.33;;
39266;SDS011;24967;51.154;13.812;2023-09-18T08:53:09;3.20;;;3.10;;
39266;SDS011;24967;51.154;13.812;2023-09-18T08:55:36;4.53;;;3.40;;
39266;SDS011;24967;51.154;13.812;2023-09-18T08:58:03;3.78;;;3.08;;
39266;SDS011;24967;51.154;13.812;2023-09-18T09:00:29;3.30;;;3.20;;
39266;SDS011;24967;51.154;13.812;2023-09-18T09:02:56;3.58;;;3.28;;
39266;SDS011;24967;51.154;13.812;2023-09-18T09:05:24;3.17;;;2.97;;
39266;SDS011;24967;51.154;13.812;2023-09-18T09:07:50;3.55;;;3.25;;
39266;SDS011;24967;51.154;13.812;2023-09-18T09:10:17;2.97;;;2.88;;
39266;SDS011;24967;51.154;13.812;2023-09-18T09:12:51;5.75;;;3.40;;
39266;SDS011;24967;51.154;13.812;2023-09-18T09:15:20;3.35;;;3.10;;
39266;SDS011;24967;51.154;13.812;2023-09-18T09:17:47;3.17;;;2.97;;
39266;SDS011;24967;51.154;13.812;2023-09-18T09:20:15;3.20;;;2.90;;
39266;SDS011;24967;51.154;13.812;2023-09-18T09:22:45;4.00;;;3.13;;
39266;SDS011;24967;51.154;13.812;2023-09-18T09:25:22;3.28;;;3.10;;
39266;SDS011;24967;51.154;13.812;2023-09-18T09:27:51;3.42;;;3.15;;
39266;SDS011;24967;51.154;13.812;2023-09-18T09:30:18;4.70;;;3.45;;
39266;SDS011;24967;51.154;13.812;2023-09-18T09:32:47;4.65;;;3.42;;
39266;SDS011;24967;51.154;13.812;2023-09-18T09:35:18;3.33;;;3.13;;
39266;SDS011;24967;51.154;13.812;2023-09-18T09:37:47;4.47;;;3.13;;
39266;SDS011;24967;51.154;13.812;2023-09-18T09:40:15;3.30;;;3.00;;
39266;SDS011;24967;51.154;13.812;2023-09-18T09:42:42;3.28;;;3.08;;
39266;SDS011;24967;51.154;13.812;2023-09-18T09:45:11;3.85;;;3.58;;
39266;SDS011;24967;51.154;13.812;2023-09-18T09:47:39;3.05;;;2.85;;
39266;SDS011;24967;51.154;13.812;2023-09-18T09:50:09;3.58;;;2.80;;
39266;SDS011;24967;51.154;13.812;2023-09-18T09:52:42;3.58;;;3.15;;
39266;SDS011;24967;51.154;13.812;2023-09-18T09:55:25;3.03;;;2.85;;
39266;SDS011;24967;51.154;13.812;2023-09-18T09:57:53;3.83;;;3.10;;
39266;SDS011;24967;51.154;13.812;2023-09-18T10:00:22;2.97;;;2.88;;
39266;SDS011;24967;51.154;13.812;2023-09-18T10:02:59;3.25;;;2.97;;
39266;SDS011;24967;51.154;13.812;2023-09-18T10:05:28;2.63;;;2.53;;
39266;SDS011;24967;51.154;13.812;2023-09-18T10:07:59;3.22;;;3.03;;
39266;SDS011;24967;51.154;13.812;2023-09-18T10:10:30;3.33;;;3.13;;
39266;SDS011;24967;51.154;13.812;2023-09-18T10:13:00;3.05;;;2.85;;
39266;SDS011;24967;51.154;13.812;2023-09-18T10:15:32;3.25;;;2.85;;
39266;SDS011;24967;51.154;13.812;2023-09-18T10:18:03;9.65;;;3.40;;
39266;SDS011;24967;51.154;13.812;2023-09-18T10:20:33;3.40;;;3.10;;
39266;SDS011;24967;51.154;13.812;2023-09-18T10:23:09;3.55;;;3.35;;
39266;SDS011;24967;51.154;13.812;2023-09-18T10:25:44;3.47;;;3.22;;
39266;SDS011;24967;51.154;13.812;2023-09-18T10:28:11;3.60;;;3.30;;
39266;SDS011;24967;51.154;13.812;2023-09-18T10:30:40;3.28;;;3.00;;
39266;SDS011;24967;51.154;13.812;2023-09-18T10:33:09;4.28;;;3.05;;
39266;SDS011;24967;51.154;13.812;2023-09-18T10:35:35;3.42;;;2.97;;
39266;SDS011;24967;51.154;13.812;2023-09-18T10:38:03;3.35;;;3.08;;
39266;SDS011;24967;51.154;13.812;2023-09-18T10:40:32;3.30;;;3.10;;
39266;SDS011;24967;51.154;13.812;2023-09-18T10:43:02;2.88;;;2.67;;
39266;SDS011;24967;51.154;13.812;2023-09-18T10:45:34;4.47;;;2.83;;
39266;SDS011;24967;51.154;13.812;2023-09-18T10:48:02;3.45;;;3.15;;
39266;SDS011;24967;51.154;13.812;2023-09-18T10:50:33;3.40;;;3.20;;
39266;SDS011;24967;51.154;13.812;2023-09-18T10:53:00;3.03;;;2.75;;
39266;SDS011;24967;51.154;13.812;2023-09-18T10:55:27;3.17;;;2.88;;
39266;SDS011;24967;51.154;13.812;2023-09-18T10:57:55;2.92;;;2.80;;
39266;SDS011;24967;51.154;13.812;2023-09-18T11:00:25;5.03;;;3.03;;
39266;SDS011;24967;51.154;13.812;2023-09-18T11:02:53;3.15;;;2.95;;
39266;SDS011;24967;51.154;13.812;2023-09-18T11:05:31;2.60;;;2.38;;
39266;SDS011;24967;51.154;13.812;2023-09-18T11:11:00;2.80;;;2.40;;
39266;SDS011;24967;51.154;13.812;2023-09-18T11:13:35;3.38;;;2.90;;
39266;SDS011;24967;51.154;13.812;2023-09-18T11:16:15;3.38;;;2.72;;
39266;SDS011;24967;51.154;13.812;2023-09-18T11:19:04;3.17;;;2.85;;
39266;SDS011;24967;51.154;13.812;2023-09-18T11:21:34;2.85;;;2.70;;
39266;SDS011;24967;51.154;13.812;2023-09-18T11:24:01;3.00;;;2.85;;
39266;SDS011;24967;51.154;13.812;2023-09-18T11:26:29;3.72;;;3.00;;
39266;SDS011;24967;51.154;13.812;2023-09-18T11:28:56;4.57;;;3.17;;
39266;SDS011;24967;51.154;13.812;2023-09-18T11:34:12;3.08;;;2.97;;
39266;SDS011;24967;51.154;13.812;2023-09-18T11:36:40;2.63;;;2.42;;
39266;SDS011;24967;51.154;13.812;2023-09-18T11:39:06;8.40;;;3.35;;
39266;SDS011;24967;51.154;13.812;2023-09-18T11:41:34;4.43;;;2.80;;
39266;SDS011;24967;51.154;13.812;2023-09-18T11:44:31;3.53;;;3.33;;
39266;SDS011;24967;51.154;13.812;2023-09-18T11:47:01;4.22;;;3.00;;
39266;SDS011;24967;51.154;13.812;2023-09-18T11:49:29;3.63;;;3.30;;
39266;SDS011;24967;51.154;13.812;2023-09-18T11:51:58;5.18;;;3.60;;
39266;SDS011;24967;51.154;13.812;2023-09-18T11:54:26;3.60;;;3.40;;
39266;SDS011;24967;51.154;13.812;2023-09-18T11:56:54;3.45;;;3.20;;
39266;SDS011;24967;51.154;13.812;2023-09-18T11:59:32;3.60;;;3.30;;
39266;SDS011;24967;51.154;13.812;2023-09-18T12:02:02;2.92;;;2.83;;
39266;SDS011;24967;51.154;13.812;2023-09-18T12:04:31;4.85;;;3.22;;
39266;SDS011;24967;51.154;13.812;2023-09-18T12:06:58;3.75;;;3.33;;
39266;SDS011;24967;51.154;13.812;2023-09-18T12:09:25;3.80;;;3.42;;
39266;SDS011;24967;51.154;13.812;2023-09-18T12:11:52;3.80;;;3.15;;
39266;SDS011;24967;51.154;13.812;2023-09-18T12:14:20;4.05;;;3.70;;
39266;SDS011;24967;51.154;13.812;2023-09-18T12:16:47;5.28;;;3.20;;
39266;SDS011;24967;51.154;13.812;2023-09-18T12:19:17;3.65;;;3.13;;
39266;SDS011;24967;51.154;13.812;2023-09-18T12:21:45;3.53;;;3.25;;
39266;SDS011;24967;51.154;13.812;2023-09-18T12:24:13;3.10;;;2.78;;
39266;SDS011;24967;51.154;13.812;2023-09-18T12:26:40;2.78;;;2.58;;
39266;SDS011;24967;51.154;13.812;2023-09-18T12:29:07;4.45;;;3.00;;
39266;SDS011;24967;51.154;13.812;2023-09-18T12:31:35;6.88;;;3.22;;
39266;SDS011;24967;51.154;13.812;2023-09-18T12:34:02;5.25;;;3.70;;
39266;SDS011;24967;51.154;13.812;2023-09-18T12:36:30;6.32;;;2.92;;
39266;SDS011;24967;51.154;13.812;2023-09-18T12:38:56;3.33;;;3.13;;
39266;SDS011;24967;51.154;13.812;2023-09-18T12:41:25;3.50;;;3.20;;
39266;SDS011;24967;51.154;13.812;2023-09-18T12:43:52;3.60;;;3.22;;
39266;SDS011;24967;51.154;13.812;2023-09-18T12:46:20;3.70;;;3.50;;
39266;SDS011;24967;51.154;13.812;2023-09-18T12:48:47;5.70;;;3.63;;
39266;SDS011;24967;51.154;13.812;2023-09-18T12:51:14;3.33;;;3.13;;
39266;SDS011;24967;51.154;13.812;2023-09-18T12:53:46;5.57;;;4.07;;
39266;SDS011;24967;51.154;13.812;2023-09-18T12:56:13;4.45;;;4.05;;
39266;SDS011;24967;51.154;13.812;2023-09-18T12:58:40;3.67;;;3.40;;
39266;SDS011;24967;51.154;13.812;2023-09-18T13:01:08;4.10;;;3.55;;
39266;SDS011;24967;51.154;13.812;2023-09-18T13:03:41;4.57;;;3.67;;
39266;SDS011;24967;51.154;13.812;2023-09-18T13:06:09;4.13;;;3.72;;
39266;SDS011;24967;51.154;13.812;2023-09-18T13:08:36;3.83;;;3.42;;
39266;SDS011;24967;51.154;13.812;2023-09-18T13:11:04;4.97;;;4.07;;
39266;SDS011;24967;51.154;13.812;2023-09-18T13:13:32;4.13;;;3.78;;
39266;SDS011;24967;51.154;13.812;2023-09-18T13:15:59;5.43;;;3.70;;
39266;SDS011;24967;51.154;13.812;2023-09-18T13:18:26;5.40;;;3.90;;
39266;SDS011;24967;51.154;13.812;2023-09-18T13:20:53;4.40;;;3.72;;
39266;SDS011;24967;51.154;13.812;2023-09-18T13:23:20;3.78;;;3.50;;
39266;SDS011;24967;51.154;13.812;2023-09-18T13:25:46;4.65;;;4.43;;
39266;SDS011;24967;51.154;13.812;2023-09-18T13:28:14;4.25;;;3.95;;
39266;SDS011;24967;51.154;13.812;2023-09-18T13:30:43;4.82;;;3.90;;
39266;SDS011;24967;51.154;13.812;2023-09-18T13:33:10;5.90;;;4.47;;
39266;SDS011;24967;51.154;13.812;2023-09-18T13:35:39;10.13;;;4.07;;
39266;SDS011;24967;51.154;13.812;2023-09-18T13:38:07;4.53;;;4.13;;
39266;SDS011;24967;51.154;13.812;2023-09-18T13:40:36;3.65;;;3.45;;
39266;SDS011;24967;51.154;13.812;2023-09-18T13:43:03;4.22;;;3.95;;
39266;SDS011;24967;51.154;13.812;2023-09-18T13:45:31;4.07;;;3.78;;
39266;SDS011;24967;51.154;13.812;2023-09-18T13:47:58;4.47;;;4.07;;
39266;SDS011;24967;51.154;13.812;2023-09-18T13:50:25;5.20;;;4.10;;
39266;SDS011;24967;51.154;13.812;2023-09-18T13:52:51;4.65;;;3.83;;
39266;SDS011;24967;51.154;13.812;2023-09-18T13:55:19;4.45;;;4.10;;
39266;SDS011;24967;51.154;13.812;2023-09-18T13:57:45;4.15;;;3.85;;
39266;SDS011;24967;51.154;13.812;2023-09-18T14:00:12;7.93;;;3.83;;
39266;SDS011;24967;51.154;13.812;2023-09-18T14:02:40;3.75;;;3.53;;
39266;SDS011;24967;51.154;13.812;2023-09-18T14:05:08;3.92;;;3.67;;
39266;SDS011;24967;51.154;13.812;2023-09-18T14:07:35;6.25;;;3.92;;
39266;SDS011;24967;51.154;13.812;2023-09-18T14:10:03;3.88;;;3.58;;
39266;SDS011;24967;51.154;13.812;2023-09-18T14:12:32;5.55;;;3.90;;
39266;SDS011;24967;51.154;13.812;2023-09-18T14:14:58;6.38;;;4.20;;
39266;SDS011;24967;51.154;13.812;2023-09-18T14:17:25;6.45;;;3.50;;
39266;SDS011;24967;51.154;13.812;2023-09-18T14:19:53;6.30;;;2.67;;
39266;SDS011;24967;51.154;13.812;2023-09-18T14:22:19;5.40;;;2.42;;
39266;SDS011;24967;51.154;13.812;2023-09-18T14:24:46;4.30;;;2.20;;
39266;SDS011;24967;51.154;13.812;2023-09-18T14:27:13;8.10;;;2.17;;
39266;SDS011;24967;51.154;13.812;2023-09-18T14:29:39;6.40;;;1.90;;
39266;SDS011;24967;51.154;13.812;2023-09-18T14:32:06;8.60;;;2.20;;
39266;SDS011;24967;51.154;13.812;2023-09-18T14:34:33;14.48;;;2.92;;
39266;SDS011;24967;51.154;13.812;2023-09-18T14:37:01;9.52;;;2.10;;
39266;SDS011;24967;51.154;13.812;2023-09-18T14:39:29;4.95;;;2.25;;
39266;SDS011;24967;51.154;13.812;2023-09-18T14:41:55;6.25;;;2.30;;
39266;SDS011;24967;51.154;13.812;2023-09-18T14:44:22;6.88;;;2.63;;
39266;SDS011;24967;51.154;13.812;2023-09-18T14:46:48;8.95;;;2.97;;